sensor_id;sensor_type;location;lat;lon;timestamp;pressure;altitude;pressure_sealevel;temperature;humidity
47082;BME280;33066;49.296;14.470;2023-03-04T00:00:51;97245.27;;;6.94;32.08
47082;BME280;33066;49.296;14.470;2023-03-04T00:03:17;97241.27;;;7.15;31.89
47082;BME280;33066;49.296;14.470;2023-03-04T00:05:42;97237.62;;;7.16;32.02
47082;BME280;33066;49.296;14.470;2023-03-04T00:08:07;97235.59;;;6.74;32.10
47082;BME280;33066;49.296;14.470;2023-03-04T00:10:32;97234.45;;;6.53;32.30
47082;BME280;33066;49.296;14.470;2023-03-04T00:12:58;97230.45;;;6.79;32.37
47082;BME280;33066;49.296;14.470;2023-03-04T00:15:23;97227.56;;;6.80;32.43
47082;BME280;33066;49.296;14.470;2023-03-04T00:17:48;97226.38;;;6.89;32.33
47082;BME280;33066;49.296;14.470;2023-03-04T00:20:14;97227.52;;;6.85;32.33
47082;BME280;33066;49.296;14.470;2023-03-04T00:22:39;97225.08;;;6.87;32.32
47082;BME280;33066;49.296;14.470;2023-03-04T00:25:05;97226.50;;;6.83;32.37
47082;BME280;33066;49.296;14.470;2023-03-04T00:27:30;97222.06;;;6.68;32.30
47082;BME280;33066;49.296;14.470;2023-03-04T00:29:55;97218.92;;;6.90;32.34
47082;BME280;33066;49.296;14.470;2023-03-04T00:32:20;97218.19;;;6.84;32.32
47082;BME280;33066;49.296;14.470;2023-03-04T00:34:45;97216.14;;;6.94;32.15
47082;BME280;33066;49.296;14.470;2023-03-04T00:37:11;97214.33;;;6.97;32.18
47082;BME280;33066;49.296;14.470;2023-03-04T00:39:36;97214.67;;;6.90;32.12
47082;BME280;33066;49.296;14.470;2023-03-04T00:42:01;97210.97;;;6.91;32.23
47082;BME280;33066;49.296;14.470;2023-03-04T00:44:27;97207.18;;;6.89;32.27
47082;BME280;33066;49.296;14.470;2023-03-04T00:46:52;97202.06;;;6.79;32.35
47082;BME280;33066;49.296;14.470;2023-03-04T00:49:17;97200.32;;;6.56;32.34
47082;BME280;33066;49.296;14.470;2023-03-04T00:51:42;97199.76;;;6.84;32.22
47082;BME280;33066;49.296;14.470;2023-03-04T00:54:08;97199.73;;;6.82;32.21
47082;BME280;33066;49.296;14.470;2023-03-04T00:56:33;97195.78;;;6.84;32.26
47082;BME280;33066;49.296;14.470;2023-03-04T00:58:59;97194.61;;;6.85;32.20
47082;BME280;33066;49.296;14.470;2023-03-04T01:01:24;97190.42;;;6.77;32.34
47082;BME280;33066;49.296;14.470;2023-03-04T01:03:50;97188.12;;;6.52;32.44
47082;BME280;33066;49.296;14.470;2023-03-04T01:06:16;97187.63;;;6.72;32.42
47082;BME280;33066;49.296;14.470;2023-03-04T01:08:42;97182.41;;;6.57;32.60
47082;BME280;33066;49.296;14.470;2023-03-04T01:11:07;97179.53;;;6.47;32.65
47082;BME280;33066;49.296;14.470;2023-03-04T01:13:33;97177.69;;;6.46;32.68
47082;BME280;33066;49.296;14.470;2023-03-04T01:15:58;97173.63;;;6.44;32.63
47082;BME280;33066;49.296;14.470;2023-03-04T01:18:23;97168.70;;;6.33;32.73
47082;BME280;33066;49.296;14.470;2023-03-04T01:20:49;97164.56;;;5.98;32.85
47082;BME280;33066;49.296;14.470;2023-03-04T01:23:14;97158.76;;;6.28;32.84
47082;BME280;33066;49.296;14.470;2023-03-04T01:25:39;97159.07;;;6.48;32.93
47082;BME280;33066;49.296;14.470;2023-03-04T01:28:06;97155.25;;;6.21;33.04
47082;BME280;33066;49.296;14.470;2023-03-04T01:30:31;97154.07;;;6.29;32.95
47082;BME280;33066;49.296;14.470;2023-03-04T01:32:57;97154.47;;;6.30;32.89
47082;BME280;33066;49.296;14.470;2023-03-04T01:35:21;97152.80;;;6.20;32.92
47082;BME280;33066;49.296;14.470;2023-03-04T01:37:46;97155.28;;;6.20;32.91
47082;BME280;33066;49.296;14.470;2023-03-04T01:40:13;97154.06;;;6.18;32.88
47082;BME280;33066;49.296;14.470;2023-03-04T01:42:38;97151.23;;;6.33;32.88
47082;BME280;33066;49.296;14.470;2023-03-04T01:45:04;97148.44;;;6.41;32.80
47082;BME280;33066;49.296;14.470;2023-03-04T01:47:29;97144.22;;;6.28;32.87
47082;BME280;33066;49.296;14.470;2023-03-04T01:49:55;97142.20;;;6.33;32.87
47082;BME280;33066;49.296;14.470;2023-03-04T01:52:19;97138.96;;;6.40;32.69
47082;BME280;33066;49.296;14.470;2023-03-04T01:54:44;97129.15;;;6.15;32.89
47082;BME280;33066;49.296;14.470;2023-03-04T01:57:16;97128.22;;;6.06;33.19
47082;BME280;33066;49.296;14.470;2023-03-04T01:59:35;97127.45;;;6.05;33.39
47082;BME280;33066;49.296;14.470;2023-03-04T02:02:01;97125.52;;;5.40;33.50
47082;BME280;33066;49.296;14.470;2023-03-04T02:04:27;97125.99;;;5.74;33.60
47082;BME280;33066;49.296;14.470;2023-03-04T02:06:52;97123.38;;;5.59;33.85
47082;BME280;33066;49.296;14.470;2023-03-04T02:09:18;97120.83;;;5.48;33.74
47082;BME280;33066;49.296;14.470;2023-03-04T02:11:43;97116.57;;;5.92;33.63
47082;BME280;33066;49.296;14.470;2023-03-04T02:14:09;97113.68;;;6.07;33.47
47082;BME280;33066;49.296;14.470;2023-03-04T02:16:33;97112.59;;;6.19;33.30
47082;BME280;33066;49.296;14.470;2023-03-04T02:18:59;97109.78;;;5.78;33.08
47082;BME280;33066;49.296;14.470;2023-03-04T02:21:25;97108.71;;;6.39;33.02
47082;BME280;33066;49.296;14.470;2023-03-04T02:23:58;97109.98;;;6.38;32.95
47082;BME280;33066;49.296;14.470;2023-03-04T02:26:17;97108.76;;;6.25;32.95
47082;BME280;33066;49.296;14.470;2023-03-04T02:28:41;97105.64;;;6.10;32.73
47082;BME280;33066;49.296;14.470;2023-03-04T02:31:15;97102.02;;;5.96;32.73
47082;BME280;33066;49.296;14.470;2023-03-04T02:33:32;97097.95;;;6.09;32.84
47082;BME280;33066;49.296;14.470;2023-03-04T02:35:58;97095.40;;;6.14;33.01
47082;BME280;33066;49.296;14.470;2023-03-04T02:38:23;97094.70;;;6.05;33.10
47082;BME280;33066;49.296;14.470;2023-03-04T02:40:50;97091.94;;;6.10;33.02
47082;BME280;33066;49.296;14.470;2023-03-04T02:43:13;97088.10;;;6.04;33.04
47082;BME280;33066;49.296;14.470;2023-03-04T02:45:41;97086.83;;;5.99;33.06
47082;BME280;33066;49.296;14.470;2023-03-04T02:48:04;97081.82;;;5.74;33.04
47082;BME280;33066;49.296;14.470;2023-03-04T02:50:34;97080.93;;;5.60;33.21
47082;BME280;33066;49.296;14.470;2023-03-04T02:52:54;97078.97;;;5.70;33.39
47082;BME280;33066;49.296;14.470;2023-03-04T02:55:19;97077.72;;;5.71;33.43
47082;BME280;33066;49.296;14.470;2023-03-04T02:57:45;97078.58;;;5.74;33.36
47082;BME280;33066;49.296;14.470;2023-03-04T03:00:12;97077.13;;;5.78;33.26
47082;BME280;33066;49.296;14.470;2023-03-04T03:02:36;97077.28;;;5.71;33.25
47082;BME280;33066;49.296;14.470;2023-03-04T03:05:02;97075.34;;;5.54;33.29
47082;BME280;33066;49.296;14.470;2023-03-04T03:07:27;97074.29;;;5.82;33.30
47082;BME280;33066;49.296;14.470;2023-03-04T03:09:53;97076.57;;;5.53;33.24
47082;BME280;33066;49.296;14.470;2023-03-04T03:12:19;97071.49;;;5.47;33.26
47082;BME280;33066;49.296;14.470;2023-03-04T03:14:43;97070.22;;;5.38;33.37
47082;BME280;33066;49.296;14.470;2023-03-04T03:17:09;97066.09;;;5.24;33.49
47082;BME280;33066;49.296;14.470;2023-03-04T03:19:34;97066.66;;;5.09;33.60
47082;BME280;33066;49.296;14.470;2023-03-04T03:21:59;97064.86;;;5.16;33.69
47082;BME280;33066;49.296;14.470;2023-03-04T03:24:24;97062.05;;;5.11;33.62
47082;BME280;33066;49.296;14.470;2023-03-04T03:26:49;97060.82;;;5.31;33.54
47082;BME280;33066;49.296;14.470;2023-03-04T03:29:15;97060.72;;;5.30;33.46
47082;BME280;33066;49.296;14.470;2023-03-04T03:31:40;97060.53;;;4.90;33.61
47082;BME280;33066;49.296;14.470;2023-03-04T03:34:06;97062.33;;;5.10;33.50
47082;BME280;33066;49.296;14.470;2023-03-04T03:36:32;97058.98;;;5.33;33.19
47082;BME280;33066;49.296;14.470;2023-03-04T03:38:58;97056.98;;;5.14;33.32
47082;BME280;33066;49.296;14.470;2023-03-04T03:41:23;97054.14;;;4.93;33.50
47082;BME280;33066;49.296;14.470;2023-03-04T03:43:48;97052.80;;;5.09;33.55
47082;BME280;33066;49.296;14.470;2023-03-04T03:46:14;97052.16;;;4.89;33.50
47082;BME280;33066;49.296;14.470;2023-03-04T03:48:40;97051.69;;;5.07;33.49
47082;BME280;33066;49.296;14.470;2023-03-04T03:51:05;97053.08;;;4.60;33.71
47082;BME280;33066;49.296;14.470;2023-03-04T03:53:31;97052.76;;;4.54;33.79
47082;BME280;33066;49.296;14.470;2023-03-04T03:55:56;97052.48;;;5.07;33.73
47082;BME280;33066;49.296;14.470;2023-03-04T03:58:21;97051.41;;;4.63;33.70
47082;BME280;33066;49.296;14.470;2023-03-04T04:00:47;97049.10;;;5.09;33.37
47082;BME280;33066;49.296;14.470;2023-03-04T04:03:13;97052.46;;;4.97;33.47
47082;BME280;33066;49.296;14.470;2023-03-04T04:05:38;97049.58;;;4.79;33.45
47082;BME280;33066;49.296;14.470;2023-03-04T04:08:04;97053.57;;;4.85;33.47
47082;BME280;33066;49.296;14.470;2023-03-04T04:12:58;97047.09;;;4.80;33.18
47082;BME280;33066;49.296;14.470;2023-03-04T04:15:23;97046.39;;;5.00;33.34
47082;BME280;33066;49.296;14.470;2023-03-04T04:17:49;97041.26;;;4.76;33.09
47082;BME280;33066;49.296;14.470;2023-03-04T04:20:14;97045.81;;;4.87;33.33
47082;BME280;33066;49.296;14.470;2023-03-04T04:22:40;97036.88;;;4.96;33.24
47082;BME280;33066;49.296;14.470;2023-03-04T04:25:06;97035.45;;;4.85;33.11
47082;BME280;33066;49.296;14.470;2023-03-04T04:27:31;97032.91;;;4.80;33.04
47082;BME280;33066;49.296;14.470;2023-03-04T04:29:56;97029.65;;;5.05;33.11
47082;BME280;33066;49.296;14.470;2023-03-04T04:32:21;97032.34;;;4.93;33.16
47082;BME280;33066;49.296;14.470;2023-03-04T04:34:47;97028.71;;;5.19;33.00
47082;BME280;33066;49.296;14.470;2023-03-04T04:37:12;97026.83;;;5.14;32.85
47082;BME280;33066;49.296;14.470;2023-03-04T04:39:38;97025.30;;;5.47;32.71
47082;BME280;33066;49.296;14.470;2023-03-04T04:42:04;97024.33;;;5.40;32.65
47082;BME280;33066;49.296;14.470;2023-03-04T04:44:28;97022.48;;;5.41;32.47
47082;BME280;33066;49.296;14.470;2023-03-04T04:46:54;97019.14;;;5.43;32.60
47082;BME280;33066;49.296;14.470;2023-03-04T04:49:19;97017.76;;;5.23;32.78
47082;BME280;33066;49.296;14.470;2023-03-04T04:51:44;97013.74;;;5.23;32.70
47082;BME280;33066;49.296;14.470;2023-03-04T04:54:10;97010.23;;;5.21;32.67
47082;BME280;33066;49.296;14.470;2023-03-04T04:56:35;97007.50;;;5.22;32.72
47082;BME280;33066;49.296;14.470;2023-03-04T04:59:03;97007.60;;;5.27;32.66
47082;BME280;33066;49.296;14.470;2023-03-04T05:01:26;97006.08;;;5.04;32.59
47082;BME280;33066;49.296;14.470;2023-03-04T05:03:50;97005.08;;;5.33;32.67
47082;BME280;33066;49.296;14.470;2023-03-04T05:06:16;97005.78;;;5.07;33.07
47082;BME280;33066;49.296;14.470;2023-03-04T05:08:41;97003.42;;;4.82;33.57
47082;BME280;33066;49.296;14.470;2023-03-04T05:11:07;97007.69;;;4.67;33.19
47082;BME280;33066;49.296;14.470;2023-03-04T05:13:33;97007.26;;;4.80;33.42
47082;BME280;33066;49.296;14.470;2023-03-04T05:15:59;97008.23;;;4.95;33.32
47082;BME280;33066;49.296;14.470;2023-03-04T05:18:25;97011.35;;;5.04;32.97
47082;BME280;33066;49.296;14.470;2023-03-04T05:20:50;97013.53;;;4.91;32.87
47082;BME280;33066;49.296;14.470;2023-03-04T05:23:15;97019.35;;;5.00;33.18
47082;BME280;33066;49.296;14.470;2023-03-04T05:25:40;97018.90;;;5.02;32.98
47082;BME280;33066;49.296;14.470;2023-03-04T05:28:07;97014.63;;;5.16;32.48
47082;BME280;33066;49.296;14.470;2023-03-04T05:30:32;97018.49;;;4.93;32.26
47082;BME280;33066;49.296;14.470;2023-03-04T05:32:57;97017.51;;;5.04;32.34
47082;BME280;33066;49.296;14.470;2023-03-04T05:35:23;97019.97;;;4.72;32.63
47082;BME280;33066;49.296;14.470;2023-03-04T05:37:48;97023.12;;;4.83;33.42
47082;BME280;33066;49.296;14.470;2023-03-04T05:40:14;97023.29;;;5.12;33.55
47082;BME280;33066;49.296;14.470;2023-03-04T05:42:39;97022.51;;;4.98;33.87
47082;BME280;33066;49.296;14.470;2023-03-04T05:45:05;97024.39;;;5.33;33.12
47082;BME280;33066;49.296;14.470;2023-03-04T05:47:29;97026.31;;;5.12;33.28
47082;BME280;33066;49.296;14.470;2023-03-04T05:49:55;97024.67;;;5.25;32.83
47082;BME280;33066;49.296;14.470;2023-03-04T05:52:19;97028.37;;;5.35;32.25
47082;BME280;33066;49.296;14.470;2023-03-04T05:54:45;97026.58;;;5.39;32.55
47082;BME280;33066;49.296;14.470;2023-03-04T05:57:11;97025.99;;;5.43;32.21
47082;BME280;33066;49.296;14.470;2023-03-04T05:59:36;97028.74;;;5.19;32.01
47082;BME280;33066;49.296;14.470;2023-03-04T06:02:02;97033.44;;;4.93;31.94
47082;BME280;33066;49.296;14.470;2023-03-04T06:04:28;97036.01;;;5.49;31.39
47082;BME280;33066;49.296;14.470;2023-03-04T06:06:52;97033.13;;;5.18;31.50
47082;BME280;33066;49.296;14.470;2023-03-04T06:09:18;97036.59;;;5.14;31.21
47082;BME280;33066;49.296;14.470;2023-03-04T06:11:43;97039.66;;;5.16;31.30
47082;BME280;33066;49.296;14.470;2023-03-04T06:14:08;97038.63;;;5.20;31.48
47082;BME280;33066;49.296;14.470;2023-03-04T06:16:34;97039.04;;;5.10;31.70
47082;BME280;33066;49.296;14.470;2023-03-04T06:19:00;97041.29;;;5.12;31.85
47082;BME280;33066;49.296;14.470;2023-03-04T06:21:25;97046.26;;;5.18;31.81
47082;BME280;33066;49.296;14.470;2023-03-04T06:23:50;97052.25;;;5.18;31.90
47082;BME280;33066;49.296;14.470;2023-03-04T06:26:15;97053.87;;;5.32;31.97
47082;BME280;33066;49.296;14.470;2023-03-04T06:28:41;97053.01;;;5.41;31.92
47082;BME280;33066;49.296;14.470;2023-03-04T06:31:07;97054.47;;;5.46;32.11
47082;BME280;33066;49.296;14.470;2023-03-04T06:33:32;97053.05;;;5.35;32.17
47082;BME280;33066;49.296;14.470;2023-03-04T06:35:58;97058.83;;;5.46;32.14
47082;BME280;33066;49.296;14.470;2023-03-04T06:38:24;97064.17;;;5.82;32.04
47082;BME280;33066;49.296;14.470;2023-03-04T06:40:50;97069.86;;;5.76;31.94
47082;BME280;33066;49.296;14.470;2023-03-04T06:43:15;97071.70;;;5.67;31.88
47082;BME280;33066;49.296;14.470;2023-03-04T06:45:40;97076.78;;;5.99;31.96
47082;BME280;33066;49.296;14.470;2023-03-04T06:48:06;97074.27;;;6.03;32.22
47082;BME280;33066;49.296;14.470;2023-03-04T06:50:30;97076.83;;;5.98;32.26
47082;BME280;33066;49.296;14.470;2023-03-04T06:52:56;97075.75;;;6.11;32.10
47082;BME280;33066;49.296;14.470;2023-03-04T06:55:21;97077.25;;;6.16;31.92
47082;BME280;33066;49.296;14.470;2023-03-04T06:57:46;97080.79;;;5.94;31.92
47082;BME280;33066;49.296;14.470;2023-03-04T07:00:13;97084.21;;;6.23;32.11
47082;BME280;33066;49.296;14.470;2023-03-04T07:02:39;97090.89;;;6.23;32.32
47082;BME280;33066;49.296;14.470;2023-03-04T07:05:02;97096.18;;;6.27;33.63
47082;BME280;33066;49.296;14.470;2023-03-04T07:07:27;97100.64;;;6.18;32.54
47082;BME280;33066;49.296;14.470;2023-03-04T07:09:52;97104.27;;;6.48;32.85
47082;BME280;33066;49.296;14.470;2023-03-04T07:12:17;97105.61;;;6.55;33.05
47082;BME280;33066;49.296;14.470;2023-03-04T07:14:43;97108.71;;;6.49;32.87
47082;BME280;33066;49.296;14.470;2023-03-04T07:17:08;97112.50;;;6.43;33.22
47082;BME280;33066;49.296;14.470;2023-03-04T07:19:34;97117.11;;;6.50;32.63
47082;BME280;33066;49.296;14.470;2023-03-04T07:22:00;97120.96;;;6.57;32.56
47082;BME280;33066;49.296;14.470;2023-03-04T07:24:25;97122.28;;;6.60;33.18
47082;BME280;33066;49.296;14.470;2023-03-04T07:26:50;97127.55;;;6.81;33.36
47082;BME280;33066;49.296;14.470;2023-03-04T07:29:15;97131.35;;;6.88;33.15
47082;BME280;33066;49.296;14.470;2023-03-04T07:31:40;97128.61;;;6.97;33.83
47082;BME280;33066;49.296;14.470;2023-03-04T07:34:09;97128.13;;;6.90;33.38
47082;BME280;33066;49.296;14.470;2023-03-04T07:36:32;97128.22;;;7.00;34.66
47082;BME280;33066;49.296;14.470;2023-03-04T07:38:57;97127.29;;;7.17;34.44
47082;BME280;33066;49.296;14.470;2023-03-04T07:41:25;97127.68;;;7.36;33.77
47082;BME280;33066;49.296;14.470;2023-03-04T07:43:48;97127.89;;;7.27;33.53
47082;BME280;33066;49.296;14.470;2023-03-04T07:46:14;97127.86;;;7.47;34.12
47082;BME280;33066;49.296;14.470;2023-03-04T07:48:39;97128.88;;;7.48;34.43
47082;BME280;33066;49.296;14.470;2023-03-04T07:51:07;97130.06;;;7.21;33.61
47082;BME280;33066;49.296;14.470;2023-03-04T07:53:30;97132.75;;;7.13;34.09
47082;BME280;33066;49.296;14.470;2023-03-04T07:55:55;97137.96;;;7.18;34.39
47082;BME280;33066;49.296;14.470;2023-03-04T07:58:21;97139.37;;;7.58;34.21
47082;BME280;33066;49.296;14.470;2023-03-04T08:00:46;97137.14;;;7.30;33.74
47082;BME280;33066;49.296;14.470;2023-03-04T08:03:12;97134.83;;;7.60;33.49
47082;BME280;33066;49.296;14.470;2023-03-04T08:05:38;97135.42;;;7.09;33.56
47082;BME280;33066;49.296;14.470;2023-03-04T08:08:04;97134.81;;;7.41;33.43
47082;BME280;33066;49.296;14.470;2023-03-04T08:10:28;97129.99;;;7.09;33.55
47082;BME280;33066;49.296;14.470;2023-03-04T08:12:54;97134.84;;;7.17;33.76
47082;BME280;33066;49.296;14.470;2023-03-04T08:15:19;97136.11;;;6.99;33.78
47082;BME280;33066;49.296;14.470;2023-03-04T08:17:44;97132.29;;;7.23;33.66
47082;BME280;33066;49.296;14.470;2023-03-04T08:20:11;97137.70;;;7.22;33.40
47082;BME280;33066;49.296;14.470;2023-03-04T08:22:36;97135.73;;;7.50;33.17
47082;BME280;33066;49.296;14.470;2023-03-04T08:25:02;97135.95;;;7.33;33.18
47082;BME280;33066;49.296;14.470;2023-03-04T08:27:26;97131.76;;;7.26;33.35
47082;BME280;33066;49.296;14.470;2023-03-04T08:29:52;97135.03;;;7.16;33.37
47082;BME280;33066;49.296;14.470;2023-03-04T08:32:17;97135.00;;;7.46;33.43
47082;BME280;33066;49.296;14.470;2023-03-04T08:34:42;97134.12;;;7.36;33.40
47082;BME280;33066;49.296;14.470;2023-03-04T08:37:07;97128.21;;;7.63;33.16
47082;BME280;33066;49.296;14.470;2023-03-04T08:39:33;97130.81;;;7.65;33.14
47082;BME280;33066;49.296;14.470;2023-03-04T08:41:58;97124.98;;;7.90;32.93
47082;BME280;33066;49.296;14.470;2023-03-04T08:44:24;97120.22;;;7.84;32.82
47082;BME280;33066;49.296;14.470;2023-03-04T08:46:50;97114.57;;;8.07;32.05
47082;BME280;33066;49.296;14.470;2023-03-04T08:49:15;97118.53;;;8.21;31.99
47082;BME280;33066;49.296;14.470;2023-03-04T08:51:41;97116.95;;;7.80;31.95
47082;BME280;33066;49.296;14.470;2023-03-04T08:54:06;97119.66;;;7.77;31.90
47082;BME280;33066;49.296;14.470;2023-03-04T08:56:32;97110.61;;;7.91;31.81
47082;BME280;33066;49.296;14.470;2023-03-04T08:58:58;97115.34;;;8.03;31.47
47082;BME280;33066;49.296;14.470;2023-03-04T09:01:22;97113.68;;;8.23;31.98
47082;BME280;33066;49.296;14.470;2023-03-04T09:03:47;97114.67;;;7.92;33.08
47082;BME280;33066;49.296;14.470;2023-03-04T09:06:15;97113.80;;;8.20;33.54
47082;BME280;33066;49.296;14.470;2023-03-04T09:08:39;97117.44;;;7.98;31.84
47082;BME280;33066;49.296;14.470;2023-03-04T09:11:04;97112.99;;;8.06;30.89
47082;BME280;33066;49.296;14.470;2023-03-04T09:13:30;97115.65;;;8.40;32.97
47082;BME280;33066;49.296;14.470;2023-03-04T09:15:55;97116.88;;;8.29;32.11
47082;BME280;33066;49.296;14.470;2023-03-04T09:18:22;97115.70;;;8.32;31.50
47082;BME280;33066;49.296;14.470;2023-03-04T09:20:46;97115.95;;;8.27;30.69
47082;BME280;33066;49.296;14.470;2023-03-04T09:23:11;97112.30;;;8.00;30.48
47082;BME280;33066;49.296;14.470;2023-03-04T09:25:37;97117.73;;;8.33;30.84
47082;BME280;33066;49.296;14.470;2023-03-04T09:28:02;97121.04;;;8.70;30.87
47082;BME280;33066;49.296;14.470;2023-03-04T09:30:27;97113.25;;;8.26;30.79
47082;BME280;33066;49.296;14.470;2023-03-04T09:32:53;97117.90;;;8.22;30.46
47082;BME280;33066;49.296;14.470;2023-03-04T09:35:18;97119.89;;;8.38;31.28
47082;BME280;33066;49.296;14.470;2023-03-04T09:37:44;97116.94;;;8.44;30.72
47082;BME280;33066;49.296;14.470;2023-03-04T09:40:15;97119.10;;;8.71;31.06
47082;BME280;33066;49.296;14.470;2023-03-04T09:42:40;97115.20;;;8.57;30.90
47082;BME280;33066;49.296;14.470;2023-03-04T09:45:01;97115.66;;;8.38;30.37
47082;BME280;33066;49.296;14.470;2023-03-04T09:47:27;97111.89;;;8.41;30.62
47082;BME280;33066;49.296;14.470;2023-03-04T09:49:55;97110.70;;;8.74;30.32
47082;BME280;33066;49.296;14.470;2023-03-04T09:52:26;97108.18;;;8.78;30.68
47082;BME280;33066;49.296;14.470;2023-03-04T09:54:53;97110.47;;;8.89;30.03
47082;BME280;33066;49.296;14.470;2023-03-04T09:57:16;97104.28;;;8.82;30.48
47082;BME280;33066;49.296;14.470;2023-03-04T09:59:39;97107.46;;;8.96;30.38
47082;BME280;33066;49.296;14.470;2023-03-04T10:02:09;97103.06;;;8.86;29.90
47082;BME280;33066;49.296;14.470;2023-03-04T10:04:33;97108.34;;;8.87;30.02
47082;BME280;33066;49.296;14.470;2023-03-04T10:06:52;97106.75;;;8.94;29.27
47082;BME280;33066;49.296;14.470;2023-03-04T10:09:19;97104.66;;;9.03;29.81
47082;BME280;33066;49.296;14.470;2023-03-04T10:11:45;97106.86;;;8.67;28.54
47082;BME280;33066;49.296;14.470;2023-03-04T10:14:21;97105.02;;;8.57;28.99
47082;BME280;33066;49.296;14.470;2023-03-04T10:16:38;97104.69;;;8.39;29.09
47082;BME280;33066;49.296;14.470;2023-03-04T10:19:02;97102.28;;;8.67;29.42
47082;BME280;33066;49.296;14.470;2023-03-04T10:21:29;97095.16;;;9.04;28.93
47082;BME280;33066;49.296;14.470;2023-03-04T10:23:50;97108.82;;;8.96;28.04
47082;BME280;33066;49.296;14.470;2023-03-04T10:26:18;97106.69;;;8.48;28.46
47082;BME280;33066;49.296;14.470;2023-03-04T10:28:41;97095.77;;;8.62;28.31
47082;BME280;33066;49.296;14.470;2023-03-04T10:31:11;97098.61;;;8.26;28.60
47082;BME280;33066;49.296;14.470;2023-03-04T10:33:33;97100.49;;;8.52;28.87
47082;BME280;33066;49.296;14.470;2023-03-04T10:36:00;97094.35;;;9.01;28.97
47082;BME280;33066;49.296;14.470;2023-03-04T10:38:22;97093.26;;;9.52;28.40
47082;BME280;33066;49.296;14.470;2023-03-04T10:40:48;97089.79;;;9.69;28.32
47082;BME280;33066;49.296;14.470;2023-03-04T10:43:15;97086.37;;;10.44;27.19
47082;BME280;33066;49.296;14.470;2023-03-04T10:45:39;97091.16;;;10.40;27.15
47082;BME280;33066;49.296;14.470;2023-03-04T10:48:05;97082.98;;;10.53;27.42
47082;BME280;33066;49.296;14.470;2023-03-04T10:50:29;97082.41;;;11.29;27.05
47082;BME280;33066;49.296;14.470;2023-03-04T10:52:56;97078.33;;;10.27;26.32
47082;BME280;33066;49.296;14.470;2023-03-04T10:55:23;97069.31;;;12.69;25.34
47082;BME280;33066;49.296;14.470;2023-03-04T10:57:49;97069.60;;;12.47;25.13
47082;BME280;33066;49.296;14.470;2023-03-04T11:00:23;97071.54;;;12.85;25.67
47082;BME280;33066;49.296;14.470;2023-03-04T11:02:36;97068.35;;;12.24;25.44
47082;BME280;33066;49.296;14.470;2023-03-04T11:07:27;97063.60;;;12.71;24.94
47082;BME280;33066;49.296;14.470;2023-03-04T11:09:53;97063.70;;;12.75;24.40
47082;BME280;33066;49.296;14.470;2023-03-04T11:12:20;97057.01;;;12.64;24.23
47082;BME280;33066;49.296;14.470;2023-03-04T11:14:46;97055.17;;;13.14;23.97
47082;BME280;33066;49.296;14.470;2023-03-04T11:17:19;97054.32;;;12.98;23.77
47082;BME280;33066;49.296;14.470;2023-03-04T11:19:38;97050.75;;;12.98;23.82
47082;BME280;33066;49.296;14.470;2023-03-04T11:22:00;97056.81;;;13.11;23.89
47082;BME280;33066;49.296;14.470;2023-03-04T11:24:27;97051.09;;;13.28;23.83
47082;BME280;33066;49.296;14.470;2023-03-04T11:26:54;97055.24;;;13.21;23.68
47082;BME280;33066;49.296;14.470;2023-03-04T11:29:20;97051.14;;;12.94;23.86
47082;BME280;33066;49.296;14.470;2023-03-04T11:31:48;97046.91;;;13.27;23.83
47082;BME280;33066;49.296;14.470;2023-03-04T11:34:13;97045.27;;;13.39;23.71
47082;BME280;33066;49.296;14.470;2023-03-04T11:36:38;97040.81;;;13.55;23.65
47082;BME280;33066;49.296;14.470;2023-03-04T11:38:59;97044.36;;;13.89;23.40
47082;BME280;33066;49.296;14.470;2023-03-04T11:41:27;97044.03;;;13.54;23.44
47082;BME280;33066;49.296;14.470;2023-03-04T11:43:49;97046.79;;;12.83;23.98
47082;BME280;33066;49.296;14.470;2023-03-04T11:46:29;97049.35;;;12.86;24.00
47082;BME280;33066;49.296;14.470;2023-03-04T11:48:47;97045.50;;;13.32;24.16
47082;BME280;33066;49.296;14.470;2023-03-04T11:51:06;97049.26;;;12.86;24.05
47082;BME280;33066;49.296;14.470;2023-03-04T11:53:36;97044.99;;;13.28;23.94
47082;BME280;33066;49.296;14.470;2023-03-04T11:56:05;97049.06;;;13.17;23.82
47082;BME280;33066;49.296;14.470;2023-03-04T11:58:37;97048.78;;;12.70;24.38
47082;BME280;33066;49.296;14.470;2023-03-04T12:00:51;97044.35;;;12.47;24.56
47082;BME280;33066;49.296;14.470;2023-03-04T12:03:26;97037.69;;;12.70;24.57
47082;BME280;33066;49.296;14.470;2023-03-04T12:05:44;97030.33;;;13.59;24.69
47082;BME280;33066;49.296;14.470;2023-03-04T12:08:18;97025.73;;;14.20;23.83
47082;BME280;33066;49.296;14.470;2023-03-04T12:10:33;97027.49;;;14.35;23.25
47082;BME280;33066;49.296;14.470;2023-03-04T12:13:12;97017.11;;;13.65;23.37
47082;BME280;33066;49.296;14.470;2023-03-04T12:15:21;97030.11;;;12.98;24.51
47082;BME280;33066;49.296;14.470;2023-03-04T12:17:55;97024.38;;;12.78;24.66
47082;BME280;33066;49.296;14.470;2023-03-04T12:20:20;97026.83;;;12.51;25.36
47082;BME280;33066;49.296;14.470;2023-03-04T12:22:40;97016.84;;;12.88;25.42
47082;BME280;33066;49.296;14.470;2023-03-04T12:25:18;97017.09;;;13.72;24.43
47082;BME280;33066;49.296;14.470;2023-03-04T12:27:31;97011.08;;;14.74;22.94
47082;BME280;33066;49.296;14.470;2023-03-04T12:29:56;97001.07;;;15.22;21.50
47082;BME280;33066;49.296;14.470;2023-03-04T12:32:20;96997.79;;;15.28;21.63
47082;BME280;33066;49.296;14.470;2023-03-04T12:34:51;96987.93;;;15.91;21.11
47082;BME280;33066;49.296;14.470;2023-03-04T12:37:19;96989.68;;;16.35;21.04
47082;BME280;33066;49.296;14.470;2023-03-04T12:39:33;96979.54;;;16.95;20.40
47082;BME280;33066;49.296;14.470;2023-03-04T12:42:04;96987.36;;;17.31;20.15
47082;BME280;33066;49.296;14.470;2023-03-04T12:44:22;96979.52;;;17.60;19.84
47082;BME280;33066;49.296;14.470;2023-03-04T12:47:01;96975.08;;;17.09;19.91
47082;BME280;33066;49.296;14.470;2023-03-04T12:49:31;96971.06;;;17.32;19.73
47082;BME280;33066;49.296;14.470;2023-03-04T12:51:43;96989.00;;;16.50;20.32